createdAt,value
2023-05-03T05:02:06.354Z,8.48
2023-05-03T05:03:06.293Z,8.53
2023-05-03T05:04:06.234Z,8.52
2023-05-03T05:05:06.105Z,8.58
2023-05-03T05:06:06.132Z,8.53
2023-05-03T05:07:06.061Z,8.50
2023-05-03T05:08:06.064Z,8.66
2023-05-03T05:09:06.056Z,8.63
2023-05-03T05:10:06.195Z,8.73
2023-05-03T05:11:06.042Z,8.66
2023-05-03T05:12:06.003Z,8.71
2023-05-03T05:13:11.050Z,8.77
2023-05-03T05:14:06.018Z,8.80
2023-05-03T05:15:05.988Z,8.74
2023-05-03T05:16:06.018Z,8.81
2023-05-03T05:17:05.995Z,8.81
2023-05-03T05:18:06.026Z,8.89
2023-05-03T05:19:05.955Z,8.84
2023-05-03T05:20:06.167Z,8.91
2023-05-03T05:21:05.952Z,8.94
2023-05-03T05:22:05.923Z,8.95
2023-05-03T05:23:05.874Z,8.91
2023-05-03T05:24:10.955Z,8.91
2023-05-03T05:25:05.889Z,8.92
2023-05-03T05:26:05.859Z,8.86
2023-05-03T05:27:05.847Z,8.91
2023-05-03T05:28:05.831Z,8.92
2023-05-03T05:29:05.806Z,8.86
2023-05-03T05:30:05.943Z,9.01
2023-05-03T05:31:05.836Z,9.14
2023-05-03T05:32:05.844Z,9.11
2023-05-03T05:33:05.843Z,9.15
2023-05-03T05:34:05.783Z,9.15
2023-05-03T05:35:10.895Z,9.18
2023-05-03T05:36:05.755Z,9.17
2023-05-03T05:37:05.735Z,9.23
2023-05-03T05:38:05.725Z,9.31
2023-05-03T05:39:05.701Z,9.39
2023-05-03T05:40:06.024Z,9.35
2023-05-03T05:41:06.556Z,9.42
2023-05-03T05:42:05.657Z,9.40
2023-05-03T05:43:05.650Z,9.31
2023-05-03T05:44:05.653Z,9.31
2023-05-03T05:45:05.636Z,9.43
2023-05-03T05:46:10.681Z,9.54
2023-05-03T05:47:08.213Z,9.68
2023-05-03T05:48:05.622Z,9.86
2023-05-03T05:49:05.606Z,10.12
2023-05-03T05:50:15.004Z,10.55
2023-05-03T05:51:06.578Z,10.96
2023-05-03T05:52:05.595Z,11.09
2023-05-03T05:53:05.575Z,10.96
2023-05-03T05:54:05.551Z,10.70
2023-05-03T05:55:05.527Z,10.67
2023-05-03T05:56:05.556Z,10.86
2023-05-03T05:57:10.521Z,11.03
2023-05-03T05:58:05.502Z,11.22
2023-05-03T05:59:05.488Z,11.49
2023-05-03T06:00:05.583Z,11.70
2023-05-03T06:01:05.554Z,11.82
2023-05-03T06:02:05.514Z,12.01
2023-05-03T06:03:05.482Z,12.13
2023-05-03T06:04:05.413Z,12.35
2023-05-03T06:05:07.575Z,12.42
2023-05-03T06:06:05.509Z,12.45
2023-05-03T06:07:05.407Z,12.54
2023-05-03T06:08:10.399Z,12.41
2023-05-03T06:09:16.819Z,12.38
2023-05-03T06:10:06.613Z,12.39
2023-05-03T06:11:05.356Z,11.98
2023-05-03T06:12:05.337Z,11.94
2023-05-03T06:13:05.327Z,11.85
2023-05-03T06:14:05.348Z,11.78
2023-05-03T06:15:05.301Z,11.75
2023-05-03T06:16:05.295Z,11.83
2023-05-03T06:17:05.335Z,11.99
2023-05-03T06:18:05.324Z,12.09
2023-05-03T06:19:10.282Z,12.39
2023-05-03T06:20:05.751Z,12.54
2023-05-03T06:21:05.250Z,12.74
2023-05-03T06:22:05.254Z,12.92
2023-05-03T06:23:05.205Z,13.22
2023-05-03T06:24:05.191Z,13.48
2023-05-03T06:25:05.190Z,13.85
2023-05-03T06:26:05.188Z,14.03
2023-05-03T06:27:05.167Z,13.77
2023-05-03T06:28:05.170Z,13.78
2023-05-03T06:29:05.140Z,13.70
2023-05-03T06:30:10.182Z,13.78
2023-05-03T06:31:05.223Z,13.73
2023-05-03T06:32:05.115Z,13.99
2023-05-03T06:33:05.117Z,13.71
2023-05-03T06:34:05.075Z,13.57
2023-05-03T06:35:05.072Z,13.67
2023-05-03T06:36:05.087Z,13.71
2023-05-03T06:37:05.047Z,13.87
2023-05-03T06:38:05.059Z,13.96
2023-05-03T06:39:05.038Z,14.00
2023-05-03T06:40:05.475Z,14.04
2023-05-03T06:41:10.032Z,13.73
2023-05-03T06:42:04.987Z,13.54
2023-05-03T06:43:05.000Z,13.33
2023-05-03T06:44:04.961Z,13.32
2023-05-03T06:45:04.950Z,13.29
2023-05-03T06:46:05.010Z,13.42
2023-05-03T06:47:05.051Z,13.23
2023-05-03T06:48:04.979Z,13.38
2023-05-03T06:49:04.920Z,13.51
2023-05-03T06:50:05.267Z,13.25
2023-05-03T06:51:04.891Z,13.28
2023-05-03T06:52:11.696Z,13.15
2023-05-03T06:53:05.029Z,13.03
2023-05-03T06:54:05.134Z,13.03
2023-05-03T06:56:14.354Z,13.15
2023-05-03T06:57:14.146Z,13.04
2023-05-03T06:58:14.190Z,12.97
2023-05-03T06:59:14.133Z,12.90
2023-05-03T07:00:14.112Z,12.85
2023-05-03T07:01:14.127Z,12.85
2023-05-03T07:02:14.152Z,12.78
2023-05-03T07:03:14.143Z,12.95
2023-05-03T07:04:14.099Z,13.10
2023-05-03T07:05:14.099Z,13.10
2023-05-03T07:06:14.098Z,13.10
2023-05-03T07:07:19.128Z,13.17
2023-05-03T07:08:14.056Z,12.89
2023-05-03T07:09:14.050Z,12.87
2023-05-03T07:10:14.014Z,12.93
2023-05-03T07:11:14.016Z,12.87
2023-05-03T07:12:13.994Z,12.92
2023-05-03T07:13:13.972Z,12.92
2023-05-03T07:14:13.967Z,13.08
2023-05-03T07:15:13.956Z,13.28
2023-05-03T07:16:13.970Z,13.29
2023-05-03T07:17:13.936Z,13.26
2023-05-03T07:18:18.938Z,13.10
2023-05-03T07:19:13.908Z,13.19
2023-05-03T07:20:13.894Z,13.15
2023-05-03T07:21:13.879Z,13.07
2023-05-03T07:22:13.880Z,13.03
2023-05-03T07:23:13.863Z,13.00
2023-05-03T07:24:13.848Z,13.12
2023-05-03T07:25:13.911Z,13.25
2023-05-03T07:26:13.829Z,13.36
2023-05-03T07:27:13.820Z,13.29
2023-05-03T07:28:13.814Z,13.42
2023-05-03T07:29:18.835Z,13.54
2023-05-03T07:30:13.786Z,13.51
2023-05-03T07:31:13.767Z,13.52
2023-05-03T07:32:13.827Z,13.63
2023-05-03T07:33:13.924Z,13.78
2023-05-03T07:34:13.742Z,13.82
2023-05-03T07:35:13.729Z,13.99
2023-05-03T07:36:13.715Z,14.15
2023-05-03T07:37:13.712Z,14.51
2023-05-03T07:38:13.700Z,14.72
2023-05-03T07:39:13.676Z,14.84
2023-05-03T07:40:18.751Z,14.65
2023-05-03T07:41:13.654Z,14.65
2023-05-03T07:42:13.651Z,14.54
2023-05-03T07:43:13.632Z,14.15
2023-05-03T07:44:13.619Z,14.15
2023-05-03T07:45:13.604Z,14.20
2023-05-03T07:46:13.669Z,14.29
2023-05-03T07:47:13.700Z,14.35
2023-05-03T07:48:13.637Z,14.46
2023-05-03T07:49:13.571Z,14.52
2023-05-03T07:50:13.555Z,14.47
2023-05-03T07:51:18.564Z,14.45
2023-05-03T07:52:13.545Z,14.35
2023-05-03T07:53:13.516Z,14.25
2023-05-03T07:54:13.506Z,14.15
2023-05-03T07:55:13.490Z,14.17
2023-05-03T07:56:13.575Z,14.14
2023-05-03T07:57:13.484Z,14.02
2023-05-03T07:58:13.466Z,14.10
2023-05-03T07:59:13.455Z,14.21
2023-05-03T08:00:13.450Z,14.17
2023-05-03T08:01:13.419Z,14.04
2023-05-03T08:02:18.517Z,13.87
2023-05-03T08:03:13.586Z,13.71
2023-05-03T08:04:13.628Z,13.81
2023-05-03T08:05:13.453Z,13.95
2023-05-03T08:06:13.380Z,14.33
2023-05-03T08:07:13.364Z,14.29
2023-05-03T08:08:13.352Z,14.25
2023-05-03T08:09:13.331Z,14.15
2023-05-03T08:10:13.328Z,14.06
2023-05-03T08:11:13.314Z,14.39
2023-05-03T08:12:13.330Z,14.51
2023-05-03T08:13:18.307Z,14.58
2023-05-03T08:14:13.273Z,14.58
2023-05-03T08:15:13.276Z,14.64
2023-05-03T08:16:13.283Z,14.65
2023-05-03T08:17:13.264Z,14.86
2023-05-03T08:18:13.267Z,15.03
2023-05-03T08:19:13.223Z,15.13
2023-05-03T08:20:13.221Z,15.16
2023-05-03T08:21:13.201Z,15.20
2023-05-03T08:22:13.209Z,15.28
2023-05-03T08:23:13.176Z,15.01
2023-05-03T08:24:18.190Z,14.99
2023-05-03T08:25:13.161Z,15.03
2023-05-03T08:26:13.142Z,15.01
2023-05-03T08:27:13.137Z,15.16
2023-05-03T08:28:13.168Z,15.09
2023-05-03T08:29:13.108Z,15.35
2023-05-03T08:30:13.094Z,15.62
2023-05-03T08:31:13.131Z,15.71
2023-05-03T08:32:13.085Z,15.83
2023-05-03T08:33:13.099Z,15.84
2023-05-03T08:34:13.063Z,15.89
2023-05-03T08:35:18.063Z,15.96
2023-05-03T08:36:13.037Z,16.07
2023-05-03T08:37:13.026Z,15.94
2023-05-03T08:38:13.011Z,15.87
2023-05-03T08:39:12.996Z,15.54
2023-05-03T08:40:12.985Z,15.60
2023-05-03T08:41:12.969Z,15.31
2023-05-03T08:42:12.980Z,14.94
2023-05-03T08:43:12.946Z,15.07
2023-05-03T08:44:13.003Z,15.35
2023-05-03T08:45:12.923Z,15.62
2023-05-03T08:46:18.024Z,15.94
2023-05-03T08:47:12.924Z,15.93
2023-05-03T08:48:12.935Z,16.09
2023-05-03T08:49:12.885Z,16.08
2023-05-03T08:50:12.865Z,16.21
2023-05-03T08:51:12.866Z,16.41
2023-05-03T08:52:12.866Z,16.57
2023-05-03T08:53:12.825Z,16.67
2023-05-03T08:54:12.832Z,16.78
2023-05-03T08:55:12.874Z,16.76
2023-05-03T08:56:12.832Z,16.94
2023-05-03T08:57:17.827Z,17.18
2023-05-03T08:58:13.089Z,17.36
2023-05-03T08:59:12.761Z,17.48
2023-05-03T09:00:13.423Z,17.44
2023-05-03T09:01:12.796Z,17.48
2023-05-03T09:02:12.819Z,17.36
2023-05-03T09:03:12.892Z,17.41
2023-05-03T09:04:12.987Z,17.21
2023-05-03T09:05:12.692Z,17.16
2023-05-03T09:06:12.751Z,17.22
2023-05-03T09:07:12.682Z,17.19
2023-05-03T09:08:17.694Z,17.19
2023-05-03T09:09:12.648Z,17.18
2023-05-03T09:10:12.647Z,17.28
2023-05-03T09:11:12.625Z,17.21
2023-05-03T09:12:12.612Z,17.11
2023-05-03T09:13:12.620Z,16.93
2023-05-03T09:14:12.597Z,16.88
2023-05-03T09:15:12.576Z,16.83
2023-05-03T09:16:12.798Z,16.82
2023-05-03T09:17:12.558Z,16.46
2023-05-03T09:18:12.619Z,16.27
2023-05-03T09:19:17.582Z,16.27
2023-05-03T09:20:12.523Z,16.21
2023-05-03T09:21:12.511Z,16.39
2023-05-03T09:22:12.506Z,16.43
2023-05-03T09:23:12.507Z,16.43
2023-05-03T09:24:12.475Z,16.34
2023-05-03T09:25:12.472Z,16.34
2023-05-03T09:26:12.454Z,16.25
2023-05-03T09:27:12.442Z,16.31
2023-05-03T09:28:12.440Z,16.30
2023-05-03T09:29:12.439Z,16.15
2023-05-03T09:30:17.424Z,15.94
2023-05-03T09:31:13.471Z,16.00
2023-05-03T09:32:12.501Z,16.00
2023-05-03T09:33:12.393Z,15.97
2023-05-03T09:34:12.360Z,15.97
2023-05-03T09:35:12.360Z,15.92
2023-05-03T09:36:12.346Z,15.87
2023-05-03T09:37:12.347Z,15.86
2023-05-03T09:38:12.325Z,15.96
2023-05-03T09:39:12.308Z,16.23
2023-05-03T09:40:12.291Z,16.35
2023-05-03T09:41:17.307Z,16.49
2023-05-03T09:42:12.276Z,16.58
2023-05-03T09:43:12.293Z,16.76
2023-05-03T09:44:12.255Z,16.86
2023-05-03T09:45:12.248Z,17.01
2023-05-03T09:46:12.298Z,17.21
2023-05-03T09:47:12.247Z,17.28
2023-05-03T09:48:12.263Z,17.30
2023-05-03T09:49:12.230Z,17.31
2023-05-03T09:50:12.191Z,17.38
2023-05-03T09:51:12.176Z,17.38
2023-05-03T09:52:17.186Z,17.52
2023-05-03T09:53:12.146Z,17.55
2023-05-03T09:54:12.144Z,17.58
2023-05-03T09:55:12.128Z,17.62
2023-05-03T09:56:12.116Z,17.62
2023-05-03T09:57:12.100Z,17.75
2023-05-03T09:58:12.088Z,17.56
2023-05-03T09:59:12.086Z,17.26
2023-05-03T10:00:12.064Z,17.31
2023-05-03T10:01:12.081Z,17.38
2023-05-03T10:02:12.051Z,17.40
2023-05-03T10:03:17.159Z,17.52
2023-05-03T10:04:12.050Z,17.64
2023-05-03T10:05:12.023Z,17.82
2023-05-03T10:06:12.028Z,17.86
2023-05-03T10:07:12.547Z,17.95
2023-05-03T10:08:11.993Z,17.86
2023-05-03T10:09:11.978Z,17.82
2023-05-03T10:10:11.955Z,17.99
2023-05-03T10:11:11.949Z,18.05
2023-05-03T10:12:11.935Z,17.93
2023-05-03T10:13:12.522Z,17.86
2023-05-03T10:14:16.950Z,17.77
2023-05-03T10:15:11.912Z,17.87
2023-05-03T10:16:11.997Z,18.18
2023-05-03T10:17:11.888Z,18.35
2023-05-03T10:18:11.938Z,18.42
2023-05-03T10:19:13.477Z,18.58
2023-05-03T10:20:11.851Z,18.50
2023-05-03T10:21:11.858Z,18.41
2023-05-03T10:22:11.834Z,18.44
2023-05-03T10:23:11.838Z,18.42
2023-05-03T10:24:11.815Z,18.47
2023-05-03T10:25:16.826Z,18.60
2023-05-03T10:26:11.774Z,18.76
2023-05-03T10:27:11.764Z,18.87
2023-05-03T10:28:11.762Z,18.66
2023-05-03T10:29:11.764Z,18.51
2023-05-03T10:30:11.723Z,18.60
2023-05-03T10:31:11.762Z,18.60
2023-05-03T10:32:11.728Z,18.75
2023-05-03T10:33:11.744Z,18.87
2023-05-03T10:34:11.679Z,18.95
2023-05-03T10:35:11.966Z,18.72
2023-05-03T10:36:16.684Z,18.70
2023-05-03T10:37:11.709Z,18.67
2023-05-03T10:38:11.640Z,18.87
2023-05-03T10:39:11.619Z,18.95
2023-05-03T10:40:11.679Z,19.11
2023-05-03T10:41:11.604Z,19.21
2023-05-03T10:42:11.603Z,19.16
2023-05-03T10:43:11.606Z,19.32
2023-05-03T10:44:11.562Z,19.32
2023-05-03T10:45:11.560Z,19.36
2023-05-03T10:46:11.589Z,19.43
2023-05-03T10:47:16.552Z,19.56
2023-05-03T10:48:11.638Z,19.84
2023-05-03T10:49:11.527Z,20.05
2023-05-03T10:50:11.491Z,20.11
2023-05-03T10:51:11.521Z,20.13
2023-05-03T10:52:11.477Z,20.17
2023-05-03T10:53:11.471Z,20.28
2023-05-03T10:54:11.448Z,19.87
2023-05-03T10:55:11.447Z,19.48
2023-05-03T10:56:11.472Z,19.25
2023-05-03T10:57:11.413Z,19.19
2023-05-03T10:58:16.434Z,19.29
2023-05-03T10:59:11.391Z,19.36
2023-05-03T11:00:11.383Z,19.29
2023-05-03T11:01:11.396Z,19.22
2023-05-03T11:02:11.368Z,19.11
2023-05-03T11:03:11.354Z,19.11
2023-05-03T11:04:11.370Z,19.37
2023-05-03T11:05:11.442Z,19.25
2023-05-03T11:06:11.345Z,19.43
2023-05-03T11:07:11.328Z,19.61
2023-05-03T11:08:11.316Z,19.65
2023-05-03T11:09:16.300Z,19.62
2023-05-03T11:10:11.267Z,19.80
2023-05-03T11:11:11.253Z,19.78
2023-05-03T11:12:11.246Z,19.77
2023-05-03T11:13:11.249Z,19.50
2023-05-03T11:14:11.254Z,19.40
2023-05-03T11:15:11.227Z,19.43
2023-05-03T11:16:11.235Z,19.69
2023-05-03T11:17:11.192Z,19.86
2023-05-03T11:18:11.213Z,19.86
2023-05-03T11:19:11.173Z,19.87
2023-05-03T11:20:16.193Z,19.86
2023-05-03T11:21:11.152Z,19.81
2023-05-03T11:22:11.134Z,19.73
2023-05-03T11:23:11.141Z,20.03
2023-05-03T11:24:11.119Z,20.16
2023-05-03T11:25:11.100Z,20.29
2023-05-03T11:26:11.144Z,20.26
2023-05-03T11:27:11.080Z,20.32
2023-05-03T11:28:11.069Z,20.31
2023-05-03T11:29:11.064Z,20.43
2023-05-03T11:30:11.044Z,20.33
2023-05-03T11:31:16.104Z,20.48
2023-05-03T11:32:11.097Z,20.32
2023-05-03T11:33:11.030Z,20.21
2023-05-03T11:34:11.011Z,20.23
2023-05-03T11:35:11.018Z,20.17
2023-05-03T11:36:10.984Z,20.26
2023-05-03T11:37:11.006Z,20.54
2023-05-03T11:38:10.959Z,20.39
2023-05-03T11:39:10.975Z,20.35
2023-05-03T11:40:10.965Z,20.17
2023-05-03T11:41:10.922Z,19.99
2023-05-03T11:42:16.029Z,20.13
2023-05-03T11:43:10.929Z,20.50
2023-05-03T11:44:17.084Z,20.64
2023-05-03T11:45:10.893Z,20.89
2023-05-03T11:46:10.950Z,21.04
2023-05-03T11:47:10.911Z,21.38
2023-05-03T11:48:10.914Z,21.79
2023-05-03T11:49:10.915Z,22.09
2023-05-03T11:50:10.819Z,22.30
2023-05-03T11:51:10.818Z,22.58
2023-05-03T11:52:10.960Z,22.97
2023-05-03T11:53:15.819Z,22.97
2023-05-03T11:54:23.966Z,23.38
2023-05-03T11:55:10.874Z,23.42
2023-05-03T11:56:10.758Z,23.31
2023-05-03T11:57:10.747Z,22.67
2023-05-03T11:58:10.742Z,22.72
2023-05-03T11:59:10.735Z,22.52
2023-05-03T12:00:10.715Z,22.60
2023-05-03T12:01:10.707Z,22.60
2023-05-03T12:02:10.796Z,22.94
2023-05-03T12:03:10.884Z,23.15
2023-05-03T12:04:10.905Z,23.32
2023-05-03T12:05:11.993Z,23.32
2023-05-03T12:06:16.339Z,23.51
2023-05-03T12:08:12.260Z,24.06
2023-05-03T12:09:10.912Z,24.16
2023-05-03T12:10:16.442Z,24.25
2023-05-03T12:11:13.681Z,24.49
2023-05-03T12:12:13.906Z,24.46
2023-05-03T12:13:12.897Z,24.60
2023-05-03T12:14:10.846Z,24.87
2023-05-03T12:15:11.512Z,25.15
2023-05-03T12:16:12.435Z,25.43
2023-05-03T12:17:11.594Z,25.58
2023-05-03T12:18:10.981Z,25.85
2023-05-03T12:19:16.447Z,25.90
2023-05-03T12:20:41.856Z,25.98
2023-05-03T12:22:24.690Z,26.52
2023-05-03T12:23:11.048Z,26.65
2023-05-03T12:24:10.918Z,26.51
2023-05-03T12:25:11.043Z,26.17
2023-05-03T12:26:10.617Z,26.09
2023-05-03T12:27:11.030Z,26.52
2023-05-03T12:30:17.778Z,25.79
2023-05-03T12:32:11.915Z,26.09
2023-05-03T12:33:10.853Z,26.39
2023-05-03T12:34:31.602Z,26.32
2023-05-03T12:35:13.875Z,25.67
2023-05-03T12:36:13.118Z,25.67
2023-05-03T12:37:11.505Z,25.55
2023-05-03T12:38:10.919Z,25.02
2023-05-03T12:39:10.664Z,24.15
2023-05-03T12:40:31.798Z,23.40
2023-05-03T12:41:17.828Z,22.92
2023-05-03T12:42:11.620Z,22.60
2023-05-03T12:43:10.421Z,22.33
2023-05-03T12:44:10.949Z,22.15
2023-05-03T12:45:12.469Z,21.92
2023-05-03T12:47:10.614Z,21.43
2023-05-03T12:48:10.510Z,21.32
2023-05-03T12:49:14.295Z,21.17
2023-05-03T12:52:35.593Z,20.74
2023-05-03T12:53:11.322Z,20.72
2023-05-03T12:54:10.732Z,20.67
2023-05-03T12:55:11.493Z,20.64
2023-05-03T12:56:13.459Z,20.69
2023-05-03T12:57:15.046Z,20.70
2023-05-03T13:03:20.395Z,20.29
2023-05-03T13:04:41.977Z,20.28
2023-05-03T13:05:33.130Z,20.28
2023-05-03T13:06:13.597Z,20.24
2023-05-03T13:07:13.468Z,20.26
2023-05-03T13:08:10.602Z,20.29
2023-05-03T13:09:11.199Z,20.35
2023-05-03T13:11:11.049Z,20.24
2023-05-03T13:12:10.161Z,20.16
2023-05-03T13:13:09.969Z,20.10
2023-05-03T13:14:09.953Z,20.03
2023-05-03T13:15:09.992Z,19.99
2023-05-03T13:16:15.035Z,20.01
2023-05-03T13:17:09.878Z,19.99
2023-05-03T13:18:09.939Z,20.02
2023-05-03T13:19:09.859Z,20.02
2023-05-03T13:20:09.841Z,19.88
2023-05-03T13:21:09.836Z,19.98
2023-05-03T13:22:09.814Z,19.92
2023-05-03T13:23:09.798Z,19.94
2023-05-03T13:24:09.859Z,19.78
2023-05-03T13:25:09.791Z,19.81
2023-05-03T13:26:09.767Z,19.71
2023-05-03T13:27:14.786Z,19.63
2023-05-03T13:28:09.753Z,19.63
2023-05-03T13:29:09.746Z,19.65
2023-05-03T13:30:09.746Z,19.62
2023-05-03T13:31:09.808Z,19.71
2023-05-03T13:32:09.815Z,19.80
2023-05-03T13:33:09.817Z,19.83
2023-05-03T13:34:09.706Z,19.88
2023-05-03T13:35:09.669Z,19.88
2023-05-03T13:36:09.653Z,19.84
2023-05-03T13:37:09.640Z,19.96
2023-05-03T13:38:14.683Z,19.98
2023-05-03T13:39:09.769Z,19.81
2023-05-03T13:40:09.609Z,19.76
2023-05-03T13:41:09.597Z,19.80
2023-05-03T13:42:09.592Z,19.73
2023-05-03T13:43:09.590Z,19.77
2023-05-03T13:44:09.581Z,19.81
2023-05-03T13:45:09.561Z,19.76
2023-05-03T13:46:09.624Z,19.86
2023-05-03T13:47:09.588Z,19.83
2023-05-03T13:48:18.851Z,19.86
2023-05-03T13:49:14.641Z,19.86
2023-05-03T13:50:09.498Z,19.98
2023-05-03T13:51:09.484Z,19.98
2023-05-03T13:52:09.468Z,20.03
2023-05-03T13:53:09.463Z,19.99
2023-05-03T13:54:09.460Z,19.87
2023-05-03T13:55:09.436Z,19.83
2023-05-03T13:56:09.425Z,19.80
2023-05-03T13:57:09.415Z,19.84
2023-05-03T13:58:09.417Z,19.86
2023-05-03T13:59:09.439Z,19.87
2023-05-03T14:00:14.415Z,19.84
2023-05-03T14:01:09.431Z,19.80
2023-05-03T14:02:09.366Z,19.88
2023-05-03T14:03:09.527Z,19.87
2023-05-03T14:04:09.408Z,19.83
2023-05-03T14:05:09.340Z,19.91
2023-05-03T14:06:09.333Z,19.86
2023-05-03T14:07:09.296Z,19.96
2023-05-03T14:08:09.295Z,20.06
2023-05-03T14:09:09.318Z,19.99
2023-05-03T14:10:09.801Z,19.95
2023-05-03T14:11:14.394Z,20.01
2023-05-03T14:12:09.343Z,20.01
2023-05-03T14:13:09.329Z,19.81
2023-05-03T14:14:09.226Z,19.81
2023-05-03T14:15:09.215Z,19.83
2023-05-03T14:16:09.652Z,19.86
2023-05-03T14:17:09.254Z,20.01
2023-05-03T14:18:09.221Z,20.05
2023-05-03T14:19:09.234Z,20.01
2023-05-03T14:20:09.273Z,20.08
2023-05-03T14:21:09.219Z,19.99
2023-05-03T14:22:14.156Z,20.06
2023-05-03T14:23:09.116Z,20.10
2023-05-03T14:24:09.194Z,20.17
2023-05-03T14:25:09.100Z,20.14
2023-05-03T14:26:09.082Z,20.21
2023-05-03T14:27:09.084Z,20.21
2023-05-03T14:28:09.067Z,20.18
2023-05-03T14:29:09.070Z,20.18
2023-05-03T14:30:09.037Z,20.21
2023-05-03T14:31:16.680Z,20.16
2023-05-03T14:32:09.024Z,20.17
2023-05-03T14:33:14.071Z,20.24
2023-05-03T14:34:09.027Z,20.23
2023-05-03T14:35:09.036Z,20.26
2023-05-03T14:36:08.977Z,20.24
2023-05-03T14:37:09.155Z,20.24
2023-05-03T14:38:08.968Z,20.28
2023-05-03T14:39:08.946Z,20.23
2023-05-03T14:40:09.179Z,20.35
2023-05-03T14:41:08.914Z,20.32
2023-05-03T14:42:09.016Z,20.31
2023-05-03T14:43:08.950Z,20.28
2023-05-03T14:44:13.925Z,20.29
2023-05-03T14:45:10.980Z,20.33
2023-05-03T14:46:08.998Z,20.28
2023-05-03T14:47:08.929Z,20.32
2023-05-03T14:48:08.876Z,20.26
2023-05-03T14:49:08.833Z,20.26
2023-05-03T14:50:08.820Z,20.32
2023-05-03T14:51:08.885Z,20.33
2023-05-03T14:52:08.915Z,20.32
2023-05-03T14:53:08.782Z,20.33
2023-05-03T14:54:08.780Z,20.36
2023-05-03T14:55:13.782Z,20.41
2023-05-03T14:56:08.767Z,20.36
2023-05-03T14:57:08.739Z,20.38
2023-05-03T14:58:08.780Z,20.39
2023-05-03T14:59:08.722Z,20.29
2023-05-03T15:00:08.792Z,20.23
2023-05-03T15:01:08.732Z,20.14
2023-05-03T15:02:08.708Z,20.24
2023-05-03T15:03:08.878Z,20.23
2023-05-03T15:04:08.702Z,20.32
2023-05-03T15:05:08.655Z,20.28
2023-05-03T15:06:13.676Z,20.29
2023-05-03T15:07:08.631Z,20.31
2023-05-03T15:08:08.619Z,20.26
2023-05-03T15:09:08.648Z,20.33
2023-05-03T15:10:09.143Z,20.35
2023-05-03T15:11:08.582Z,20.32
2023-05-03T15:12:08.565Z,20.39
2023-05-03T15:13:08.712Z,20.42
2023-05-03T15:14:08.642Z,20.38
2023-05-03T15:15:08.537Z,20.51
2023-05-03T15:16:08.527Z,20.47
2023-05-03T15:17:13.734Z,20.31
2023-05-03T15:18:08.717Z,20.28
2023-05-03T15:19:08.522Z,20.26
2023-05-03T15:20:08.491Z,20.21
2023-05-03T15:21:08.472Z,20.18
2023-05-03T15:22:08.481Z,20.24
2023-05-03T15:23:08.509Z,20.29
2023-05-03T15:24:08.455Z,20.26
2023-05-03T15:25:08.426Z,20.31
2023-05-03T15:26:08.417Z,20.21
2023-05-03T15:27:08.398Z,20.29
2023-05-03T15:28:13.419Z,20.38
2023-05-03T15:29:08.492Z,20.35
2023-05-03T15:30:08.550Z,20.52
2023-05-03T15:31:08.412Z,20.42
2023-05-03T15:32:08.350Z,20.43
2023-05-03T15:33:08.377Z,20.51
2023-05-03T15:34:08.328Z,20.47
2023-05-03T15:35:08.317Z,20.51
2023-05-03T15:36:08.383Z,20.43
2023-05-03T15:37:08.286Z,20.51
2023-05-03T15:38:08.309Z,20.43
2023-05-03T15:39:13.291Z,20.39
2023-05-03T15:40:08.252Z,20.48
2023-05-03T15:41:08.243Z,20.36
2023-05-03T15:42:08.240Z,20.38
2023-05-03T15:43:08.230Z,20.33
2023-05-03T15:44:08.232Z,20.43
2023-05-03T15:45:08.193Z,20.41
2023-05-03T15:46:08.252Z,20.32
2023-05-03T15:47:08.169Z,20.32
2023-05-03T15:48:08.250Z,20.26
2023-05-03T15:49:08.154Z,20.16
2023-05-03T15:50:13.206Z,20.13
2023-05-03T15:51:08.122Z,20.11
2023-05-03T15:52:09.159Z,20.17
2023-05-03T15:53:08.112Z,20.10
2023-05-03T15:54:08.173Z,20.10
2023-05-03T15:55:08.110Z,20.13
2023-05-03T15:56:08.066Z,20.13
2023-05-03T15:57:08.057Z,20.16
2023-05-03T15:58:08.050Z,20.06
2023-05-03T15:59:08.051Z,20.21
2023-05-03T16:00:08.196Z,20.33
2023-05-03T16:01:13.067Z,20.28
2023-05-03T16:02:08.056Z,20.32
2023-05-03T16:03:08.105Z,20.28
2023-05-03T16:04:07.983Z,20.24
2023-05-03T16:05:07.984Z,20.29
2023-05-03T16:06:07.990Z,20.23
2023-05-03T16:07:07.943Z,20.29
2023-05-03T16:08:07.955Z,20.24
2023-05-03T16:09:07.928Z,20.29
2023-05-03T16:10:08.177Z,20.20
2023-05-03T16:11:07.961Z,20.28
2023-05-03T16:12:13.248Z,20.33
2023-05-03T16:13:07.973Z,20.26
2023-05-03T16:14:07.881Z,20.26
2023-05-03T16:15:07.993Z,20.23
2023-05-03T16:16:07.925Z,20.08
2023-05-03T16:17:07.842Z,20.13
2023-05-03T16:18:07.928Z,20.08
2023-05-03T16:19:07.879Z,20.11
2023-05-03T16:20:07.811Z,20.13
2023-05-03T16:21:07.796Z,20.11
2023-05-03T16:22:07.791Z,20.20
2023-05-03T16:23:12.798Z,20.21
2023-05-03T16:24:07.780Z,20.21
2023-05-03T16:25:07.860Z,20.29
2023-05-03T16:26:07.760Z,20.28
2023-05-03T16:27:07.731Z,20.26
2023-05-03T16:28:07.711Z,20.32
2023-05-03T16:29:07.704Z,20.32
2023-05-03T16:30:07.698Z,20.32
2023-05-03T16:31:07.787Z,20.33
2023-05-03T16:32:07.717Z,20.28
2023-05-03T16:33:07.682Z,20.36
2023-05-03T16:34:12.668Z,20.35
2023-05-03T16:35:07.675Z,20.28
2023-05-03T16:36:07.638Z,20.16
2023-05-03T16:37:07.683Z,20.08
2023-05-03T16:38:07.605Z,20.16
2023-05-03T16:39:07.586Z,20.10
2023-05-03T16:40:07.732Z,20.23
2023-05-03T16:41:07.580Z,20.23
2023-05-03T16:42:07.576Z,20.20
2023-05-03T16:43:08.424Z,20.29
2023-05-03T16:44:07.550Z,20.29
2023-05-03T16:45:12.535Z,20.28
2023-05-03T16:46:07.534Z,20.31
2023-05-03T16:47:07.506Z,20.28
2023-05-03T16:48:08.376Z,20.28
2023-05-03T16:49:07.475Z,20.24
2023-05-03T16:50:07.834Z,20.17
2023-05-03T16:51:07.475Z,20.29
2023-05-03T16:52:07.442Z,20.18
2023-05-03T16:53:07.423Z,20.31
2023-05-03T16:54:07.502Z,20.21
2023-05-03T16:55:07.412Z,20.24
2023-05-03T16:56:12.418Z,20.16
2023-05-03T16:57:07.394Z,20.21
2023-05-03T16:58:07.400Z,20.20
2023-05-03T16:59:07.395Z,20.16
2023-05-03T17:00:07.506Z,20.08
2023-05-03T17:01:07.365Z,20.16
2023-05-03T17:02:07.394Z,20.17
2023-05-03T17:03:07.379Z,20.23
2023-05-03T17:04:07.362Z,20.21
2023-05-03T17:05:07.286Z,20.17
2023-05-03T17:06:07.346Z,20.17
2023-05-03T17:07:12.288Z,20.20
2023-05-03T17:08:07.251Z,20.11
2023-05-03T17:09:07.260Z,20.10
2023-05-03T17:10:07.426Z,19.86
2023-05-03T17:11:07.219Z,19.88
2023-05-03T17:12:07.292Z,19.84
2023-05-03T17:13:07.238Z,19.99
2023-05-03T17:14:07.296Z,19.96
2023-05-03T17:15:07.185Z,19.84
2023-05-03T17:16:07.244Z,19.86
2023-05-03T17:17:07.284Z,19.84
2023-05-03T17:18:12.297Z,19.92
2023-05-03T17:19:07.141Z,20.02
2023-05-03T17:20:07.274Z,19.96
2023-05-03T17:21:07.108Z,20.01
2023-05-03T17:22:07.105Z,20.01
2023-05-03T17:23:07.104Z,19.92
2023-05-03T17:24:07.143Z,19.84
2023-05-03T17:25:07.068Z,20.01
2023-05-03T17:26:07.048Z,19.88
2023-05-03T17:27:07.045Z,19.87
2023-05-03T17:28:07.031Z,19.98
2023-05-03T17:29:12.065Z,19.88
2023-05-03T17:30:07.051Z,19.84
2023-05-03T17:31:07.074Z,19.91
2023-05-03T17:32:06.988Z,19.86
2023-05-03T17:33:07.016Z,19.87
2023-05-03T17:34:06.965Z,19.87
2023-05-03T17:35:06.995Z,19.83
2023-05-03T17:36:07.071Z,19.80
2023-05-03T17:37:06.941Z,19.81
2023-05-03T17:38:06.920Z,19.88
2023-05-03T17:39:06.912Z,19.76
2023-05-03T17:40:11.911Z,19.86
2023-05-03T17:41:06.899Z,19.80
2023-05-03T17:42:06.954Z,19.80
2023-05-03T17:43:06.862Z,19.80
2023-05-03T17:44:06.844Z,19.74
2023-05-03T17:45:06.874Z,19.65
2023-05-03T17:46:06.890Z,19.65
2023-05-03T17:47:06.819Z,19.63
2023-05-03T17:48:06.926Z,19.66
2023-05-03T17:49:07.064Z,19.59
2023-05-03T17:50:06.905Z,19.62
2023-05-03T17:51:11.794Z,19.59
2023-05-03T17:52:06.788Z,19.56
2023-05-03T17:53:06.937Z,19.54
2023-05-03T17:54:06.785Z,19.55
2023-05-03T17:55:06.729Z,19.48
2023-05-03T17:56:06.727Z,19.37
2023-05-03T17:57:06.698Z,19.39
2023-05-03T17:58:06.696Z,19.40
2023-05-03T17:59:06.676Z,19.31
2023-05-03T18:00:06.956Z,19.28
2023-05-03T18:01:06.718Z,19.18
2023-05-03T18:02:11.747Z,19.23
2023-05-03T18:03:06.755Z,19.19
2023-05-03T18:04:06.653Z,19.07
2023-05-03T18:05:06.637Z,19.14
2023-05-03T18:06:06.661Z,19.08
2023-05-03T18:07:06.613Z,19.00
2023-05-03T18:08:06.583Z,18.98
2023-05-03T18:09:06.562Z,18.95
2023-05-03T18:10:06.700Z,18.94
2023-05-03T18:11:06.551Z,18.87